Time;durP1;ratioP1;P1;durP2;ratioP2;P2;SDS_P1;SDS_P2;PMS_P1;PMS_P2;Temp;Humidity;BMP_temperature;BMP_pressure;BME280_temperature;BME280_humidity;BME280_pressure;Samples;Min_cycle;Max_cycle;Signal;HPM_P1;HPM_P2
2022/02/07 00:03:52;;;;;;;;;;;4.90;77.20;;;;;;5052343;27;87288;-43
2022/02/07 00:06:17;;;;;;;;;;;4.90;77.20;;;;;;5025189;28;86932;-43
2022/02/07 00:08:43;;;;;;;;;;;4.90;77.20;;;;;;5024551;28;89203;-43
2022/02/07 00:11:08;;;;;;;;;;;4.90;77.20;;;;;;5024971;28;88104;-44
2022/02/07 00:13:34;;;;;;;;;;;4.90;77.20;;;;;;5027891;28;87156;-42
2022/02/07 00:16:00;;;;;;;;;;;4.90;77.20;;;;;;5024553;28;89553;-42
2022/02/07 00:18:25;;;;;;;;;;;4.80;77.10;;;;;;5024884;28;87164;-43
2022/02/07 00:20:51;;;;;;;;;;;4.80;77.10;;;;;;5024959;28;88771;-43
2022/02/07 00:23:17;;;;;;;;;;;4.80;77.10;;;;;;5024434;28;89758;-43
2022/02/07 00:25:43;;;;;;;;;;;4.90;77.20;;;;;;5025447;28;86299;-44
2022/02/07 00:28:09;;;;;;;;;;;4.80;77.10;;;;;;5024693;28;88167;-44
2022/02/07 00:30:34;;;;;;;;;;;4.80;77.70;;;;;;5024494;28;89634;-43
2022/02/07 00:33:01;;;;;;;;;;;4.80;77.10;;;;;;5023908;28;88057;-43
2022/02/07 00:35:26;;;;;;;;;;;4.80;77.20;;;;;;5027152;28;88659;-42
2022/02/07 00:37:55;;;;;;;;;;;4.80;77.10;;;;;;5024846;28;87111;-43
2022/02/07 00:42:56;;;;;;;;;;;4.80;77.10;;;;;;5023913;28;87914;-44
2022/02/07 00:46:07;;;;;;;;;;;4.80;77.20;;;;;;5024368;28;87028;-44
2022/02/07 00:48:11;;;;;;;;;;;4.80;77.20;;;;;;5017980;28;86934;-43
2022/02/07 00:50:38;;;;;;;;;;;4.80;77.20;;;;;;5024501;28;88794;-44
2022/02/07 00:53:05;;;;;;;;;;;4.80;77.30;;;;;;5024222;28;87109;-43
2022/02/07 00:55:31;;;;;;;;;;;4.80;77.30;;;;;;5024297;28;88747;-44
2022/02/07 00:57:57;;;;;;;;;;;4.80;77.20;;;;;;5026195;28;90280;-43
2022/02/07 01:00:23;;;;;;;;;;;4.80;77.30;;;;;;5024174;28;88807;-44
2022/02/07 01:02:48;;;;;;;;;;;4.80;77.30;;;;;;5023996;28;89136;-44
2022/02/07 01:05:14;;;;;;;;;;;4.80;77.20;;;;;;5024085;28;87176;-43
2022/02/07 01:07:42;;;;;;;;;;;4.80;77.30;;;;;;5023933;28;88039;-43
2022/02/07 01:10:08;;;;;;;;;;;4.70;77.20;;;;;;5023737;28;89477;-43
2022/02/07 01:13:03;;;;;;;;;;;4.80;77.40;;;;;;5024054;28;87171;-43
2022/02/07 01:57:58;;;;;;;;;;;4.70;77.50;;;;;;5022640;28;87276;-44
2022/02/07 02:00:24;;;;;;;;;;;4.60;77.50;;;;;;5023028;28;89679;-44
2022/02/07 02:02:49;;;;;;;;;;;4.60;77.40;;;;;;5023196;28;87168;-43
2022/02/07 02:05:15;;;;;;;;;;;4.70;77.50;;;;;;5025752;28;88904;-44
2022/02/07 02:07:41;;;;;;;;;;;4.70;77.50;;;;;;5023655;28;86375;-44
2022/02/07 02:10:07;;;;;;;;;;;4.60;77.50;;;;;;5023388;28;88201;-43
2022/02/07 02:12:39;;;;;;;;;;;4.60;77.50;;;;;;5022976;28;89254;-43
2022/02/07 02:15:34;;;;;;;;;;;4.60;77.50;;;;;;5022669;28;87876;-43
2022/02/07 02:21:16;;;;;;;;;;;4.60;77.50;;;;;;5021305;28;87923;-44
2022/02/07 02:47:45;;;;;;;;;;;4.60;77.60;;;;;;5022999;28;86999;-44
2022/02/07 02:50:33;;;;;;;;;;;4.60;77.60;;;;;;5022484;28;89857;-43
2022/02/07 02:52:59;;;;;;;;;;;4.60;77.50;;;;;;5024933;28;87045;-45
2022/02/07 02:55:24;;;;;;;;;;;4.60;77.60;;;;;;5022521;28;89050;-43
2022/02/07 02:57:50;;;;;;;;;;;4.60;77.50;;;;;;5022695;28;87128;-43
2022/02/07 03:00:15;;;;;;;;;;;4.60;77.50;;;;;;5025978;28;88771;-43
2022/02/07 03:02:41;;;;;;;;;;;4.50;77.50;;;;;;5024523;28;91187;-43
2022/02/07 03:05:07;;;;;;;;;;;4.60;77.50;;;;;;5026406;28;87203;-44
2022/02/07 03:07:32;;;;;;;;;;;4.60;77.40;;;;;;5025297;28;88756;-43
2022/02/07 03:10:00;;;;;;;;;;;4.60;77.40;;;;;;5025633;28;89308;-43
2022/02/07 03:12:27;;;;;;;;;;;4.60;77.50;;;;;;5025928;28;87100;-43
2022/02/07 03:15:03;;;;;;;;;;;4.50;77.50;;;;;;5028527;28;88752;-44
2022/02/07 03:17:29;;;;;;;;;;;4.50;77.40;;;;;;5026049;28;86992;-42
2022/02/07 03:19:54;;;;;;;;;;;4.50;77.40;;;;;;5025963;28;89445;-43
2022/02/07 03:22:20;;;;;;;;;;;4.50;77.40;;;;;;5025291;28;89615;-43
2022/02/07 03:24:45;;;;;;;;;;;4.50;77.40;;;;;;5026167;28;86219;-43
2022/02/07 03:27:11;;;;;;;;;;;4.50;77.40;;;;;;5025634;28;88110;-44
2022/02/07 03:29:36;;;;;;;;;;;4.50;77.50;;;;;;5025437;28;89716;-44
2022/02/07 03:32:02;;;;;;;;;;;4.50;77.40;;;;;;5024957;28;88138;-44
2022/02/07 03:34:27;;;;;;;;;;;4.50;77.50;;;;;;5028034;28;89767;-42
2022/02/07 03:36:53;;;;;;;;;;;4.50;77.50;;;;;;5025476;28;87178;-42
2022/02/07 03:39:18;;;;;;;;;;;4.50;77.50;;;;;;5025740;28;89088;-44
2022/02/07 03:41:44;;;;;;;;;;;4.50;77.60;;;;;;5025266;28;89839;-42
2022/02/07 03:44:09;;;;;;;;;;;4.50;77.60;;;;;;5025235;28;87184;-42
2022/02/07 03:46:35;;;;;;;;;;;4.50;77.60;;;;;;5025261;28;89105;-43
2022/02/07 03:49:01;;;;;;;;;;;4.50;77.60;;;;;;5025618;28;89085;-43
2022/02/07 03:51:26;;;;;;;;;;;4.50;77.60;;;;;;5025240;28;87133;-43
2022/02/07 03:53:52;;;;;;;;;;;4.50;77.60;;;;;;5025111;28;89190;-43
2022/02/07 03:56:17;;;;;;;;;;;4.50;77.60;;;;;;5026961;28;90503;-43
2022/02/07 03:58:43;;;;;;;;;;;4.50;77.60;;;;;;5025208;28;90404;-43
2022/02/07 04:01:08;;;;;;;;;;;4.40;77.60;;;;;;5024843;28;89800;-43
2022/02/07 04:03:35;;;;;;;;;;;4.50;77.60;;;;;;5025322;28;86716;-43
2022/02/07 04:06:04;;;;;;;;;;;4.50;77.60;;;;;;5025038;28;88962;-43
2022/02/07 04:08:34;;;;;;;;;;;4.50;77.60;;;;;;5024618;28;89609;-42
2022/02/07 04:11:15;;;;;;;;;;;4.40;77.60;;;;;;5024327;28;86915;-44
2022/02/07 04:13:47;;;;;;;;;;;4.40;77.60;;;;;;5025739;28;89345;-43
2022/02/07 04:16:12;;;;;;;;;;;4.40;77.70;;;;;;5024604;28;89583;-43
2022/02/07 04:21:21;;;;;;;;;;;4.40;77.70;;;;;;5021760;28;88938;-42
2022/02/07 04:23:47;;;;;;;;;;;4.40;77.70;;;;;;5025084;28;87140;-43
2022/02/07 04:26:13;;;;;;;;;;;4.40;77.60;;;;;;5024682;28;88553;-43
2022/02/07 04:28:38;;;;;;;;;;;4.40;77.70;;;;;;5024286;28;89807;-43
2022/02/07 04:31:04;;;;;;;;;;;4.40;77.70;;;;;;5024718;28;86912;-43
2022/02/07 04:33:29;;;;;;;;;;;4.40;77.70;;;;;;5024710;28;87970;-44
2022/02/07 04:35:55;;;;;;;;;;;4.40;77.70;;;;;;5024321;28;89420;-43
2022/02/07 04:38:20;;;;;;;;;;;4.40;77.70;;;;;;5025065;28;86377;-44
2022/02/07 04:40:46;;;;;;;;;;;4.40;77.70;;;;;;5027121;28;88016;-42
2022/02/07 04:43:14;;;;;;;;;;;4.40;77.70;;;;;;5024021;28;87254;-43
2022/02/07 04:50:53;;;;;;;;;;;4.40;77.70;;;;;;5022469;28;86859;-43
2022/02/07 04:56:19;;;;;;;;;;;4.40;77.70;;;;;;5023860;28;87255;-43
2022/02/07 05:01:35;;;;;;;;;;;4.30;78.20;;;;;;5022605;28;87383;-42
2022/02/07 05:04:10;;;;;;;;;;;4.30;77.70;;;;;;5027448;28;89118;-43
2022/02/07 05:14:51;;;;;;;;;;;4.30;77.70;;;;;;5023632;28;86867;-42
2022/02/07 05:17:19;;;;;;;;;;;4.30;77.70;;;;;;5023566;28;89349;-42
2022/02/07 05:19:44;;;;;;;;;;;4.30;77.70;;;;;;5023859;28;87279;-42
2022/02/07 05:22:10;;;;;;;;;;;4.30;77.70;;;;;;5023033;28;88942;-43
2022/02/07 05:24:36;;;;;;;;;;;4.30;77.70;;;;;;5023786;28;89407;-43
2022/02/07 05:27:02;;;;;;;;;;;4.30;77.70;;;;;;5026558;28;87170;-43
2022/02/07 05:29:27;;;;;;;;;;;4.30;77.70;;;;;;5024118;28;87687;-43
2022/02/07 05:31:53;;;;;;;;;;;4.30;77.70;;;;;;5023668;28;87157;-42
2022/02/07 05:34:18;;;;;;;;;;;4.30;77.70;;;;;;5023688;28;88896;-44
2022/02/07 05:36:45;;;;;;;;;;;4.30;77.70;;;;;;5022789;28;89710;-43
2022/02/07 05:39:17;;;;;;;;;;;4.30;77.70;;;;;;5023638;28;87215;-44
2022/02/07 05:41:43;;;;;;;;;;;4.30;77.70;;;;;;5023584;28;88631;-44
2022/02/07 05:44:09;;;;;;;;;;;4.20;77.70;;;;;;5022665;28;89387;-43
2022/02/07 05:46:34;;;;;;;;;;;4.30;77.70;;;;;;5026335;28;87149;-44
2022/02/07 05:49:00;;;;;;;;;;;4.30;77.70;;;;;;5023236;28;89654;-43
2022/02/07 05:51:25;;;;;;;;;;;4.30;77.70;;;;;;5023416;28;88002;-43
2022/02/07 05:53:51;;;;;;;;;;;4.30;77.70;;;;;;5024039;28;89046;-42
2022/02/07 05:56:16;;;;;;;;;;;4.20;77.70;;;;;;5023039;28;89530;-43
2022/02/07 05:58:42;;;;;;;;;;;4.20;77.70;;;;;;5023456;28;87183;-42
2022/02/07 06:01:08;;;;;;;;;;;4.20;77.70;;;;;;5022691;28;88916;-44
2022/02/07 06:03:33;;;;;;;;;;;4.30;77.70;;;;;;5023062;28;89289;-43
2022/02/07 06:05:59;;;;;;;;;;;4.20;77.70;;;;;;5023617;28;87146;-43
2022/02/07 06:08:24;;;;;;;;;;;4.20;77.70;;;;;;5025804;28;88786;-44
2022/02/07 06:10:50;;;;;;;;;;;4.20;77.70;;;;;;5023226;28;87030;-43
2022/02/07 06:13:19;;;;;;;;;;;4.20;78.30;;;;;;5023206;28;88987;-44
2022/02/07 06:15:46;;;;;;;;;;;4.20;77.70;;;;;;5022734;28;89593;-44
2022/02/07 06:18:15;;;;;;;;;;;4.20;77.70;;;;;;5023815;28;86288;-44
2022/02/07 06:20:40;;;;;;;;;;;4.20;77.70;;;;;;5023095;28;88627;-43
2022/02/07 06:23:06;;;;;;;;;;;4.20;77.70;;;;;;5022821;28;89285;-42
2022/02/07 06:25:50;;;;;;;;;;;4.20;77.70;;;;;;5022438;28;88120;-43
2022/02/07 06:28:16;;;;;;;;;;;4.20;77.70;;;;;;5022763;28;88921;-43
2022/02/07 06:30:41;;;;;;;;;;;4.20;77.70;;;;;;5025464;28;89270;-43
2022/02/07 06:33:07;;;;;;;;;;;4.20;77.70;;;;;;5022783;28;88911;-42
2022/02/07 06:35:32;;;;;;;;;;;4.20;77.70;;;;;;5026166;28;89069;-45
2022/02/07 06:37:58;;;;;;;;;;;4.20;77.70;;;;;;5026466;28;86865;-46
2022/02/07 06:40:23;;;;;;;;;;;4.20;77.70;;;;;;5026443;28;89049;-45
2022/02/07 06:42:49;;;;;;;;;;;4.20;77.70;;;;;;5026190;28;88752;-43
2022/02/07 06:45:14;;;;;;;;;;;4.20;77.60;;;;;;5026167;28;87087;-43
2022/02/07 06:47:40;;;;;;;;;;;4.20;77.60;;;;;;5026472;28;87591;-45
2022/02/07 06:50:06;;;;;;;;;;;4.20;77.60;;;;;;5025271;28;90464;-45
2022/02/07 06:52:31;;;;;;;;;;;4.20;78.00;;;;;;5029251;28;87267;-45
2022/02/07 06:54:57;;;;;;;;;;;4.20;77.70;;;;;;5025858;28;89516;-43
2022/02/07 06:57:23;;;;;;;;;;;4.20;77.70;;;;;;5026042;28;87077;-45
2022/02/07 06:59:49;;;;;;;;;;;4.20;77.70;;;;;;5024814;28;89810;-45
2022/02/07 07:02:14;;;;;;;;;;;4.20;77.70;;;;;;5024346;28;91191;-44
2022/02/07 07:04:40;;;;;;;;;;;4.20;77.70;;;;;;5026105;28;87051;-46
2022/02/07 07:07:05;;;;;;;;;;;4.20;77.70;;;;;;5026759;28;86937;-44
2022/02/07 07:09:32;;;;;;;;;;;4.20;77.70;;;;;;5025750;28;88994;-44
2022/02/07 07:12:03;;;;;;;;;;;4.20;77.70;;;;;;5025951;28;87088;-47
2022/02/07 07:14:45;;;;;;;;;;;4.20;77.70;;;;;;5027545;28;88786;-45
2022/02/07 07:17:10;;;;;;;;;;;4.20;77.80;;;;;;5026105;28;87022;-43
2022/02/07 07:19:36;;;;;;;;;;;4.20;77.70;;;;;;5025721;28;88156;-45
2022/02/07 07:22:03;;;;;;;;;;;4.20;77.70;;;;;;5025489;28;88362;-45
2022/02/07 07:24:29;;;;;;;;;;;4.20;77.70;;;;;;5025782;28;87064;-45
2022/02/07 07:26:55;;;;;;;;;;;4.20;77.80;;;;;;5025643;28;88866;-43
2022/02/07 07:29:26;;;;;;;;;;;4.20;77.70;;;;;;5025360;28;89468;-45
2022/02/07 07:31:57;;;;;;;;;;;4.20;77.80;;;;;;5026428;28;86077;-45
2022/02/07 07:34:23;;;;;;;;;;;4.20;77.80;;;;;;5025640;28;88103;-43
2022/02/07 07:36:49;;;;;;;;;;;4.20;77.80;;;;;;5028302;28;89579;-43
2022/02/07 07:39:15;;;;;;;;;;;4.20;77.90;;;;;;5025050;28;88854;-43
2022/02/07 07:41:41;;;;;;;;;;;4.20;78.00;;;;;;5025018;28;89521;-43
2022/02/07 07:44:09;;;;;;;;;;;4.20;78.00;;;;;;5025079;28;87097;-44
2022/02/07 07:46:35;;;;;;;;;;;4.20;78.00;;;;;;5024357;28;89238;-44
2022/02/07 07:49:06;;;;;;;;;;;4.20;78.00;;;;;;5024960;28;89503;-45
2022/02/07 07:51:42;;;;;;;;;;;4.20;78.00;;;;;;5025322;28;87059;-42
2022/02/07 08:02:13;;;;;;;;;;;4.20;78.10;;;;;;5024514;28;87236;-42
2022/02/07 08:04:41;;;;;;;;;;;4.20;78.10;;;;;;5024377;28;87978;-45
2022/02/07 08:07:15;;;;;;;;;;;4.30;78.10;;;;;;5025044;28;89958;-47
2022/02/07 08:12:11;;;;;;;;;;;4.20;78.20;;;;;;5025191;28;86942;-45
2022/02/07 08:14:37;;;;;;;;;;;4.20;78.20;;;;;;5024965;28;88782;-47
2022/02/07 08:17:03;;;;;;;;;;;4.20;78.30;;;;;;5024375;28;89339;-46
2022/02/07 08:19:30;;;;;;;;;;;4.20;78.30;;;;;;5027797;28;87132;-44
2022/02/07 08:21:56;;;;;;;;;;;4.20;78.30;;;;;;5025225;28;87880;-46
2022/02/07 08:24:21;;;;;;;;;;;4.20;78.30;;;;;;5024809;28;87129;-44
2022/02/07 08:26:47;;;;;;;;;;;4.30;78.40;;;;;;5024779;28;88032;-45
2022/02/07 08:29:13;;;;;;;;;;;4.20;78.40;;;;;;5023619;28;90249;-47
2022/02/07 08:31:39;;;;;;;;;;;4.20;78.50;;;;;;5025001;28;87025;-44
2022/02/07 08:34:05;;;;;;;;;;;4.20;78.50;;;;;;5024594;28;89408;-42
2022/02/07 08:36:30;;;;;;;;;;;4.20;78.60;;;;;;5024413;28;89502;-42
2022/02/07 08:38:56;;;;;;;;;;;4.30;78.60;;;;;;5024733;28;86884;-46
2022/02/07 08:41:21;;;;;;;;;;;4.20;78.50;;;;;;5027163;28;88975;-44
2022/02/07 08:43:47;;;;;;;;;;;4.20;78.60;;;;;;5023898;28;86874;-44
2022/02/07 08:46:13;;;;;;;;;;;4.20;78.60;;;;;;5024893;28;89002;-43
2022/02/07 08:48:38;;;;;;;;;;;4.30;78.70;;;;;;5024117;28;89397;-43
2022/02/07 08:51:06;;;;;;;;;;;4.30;78.70;;;;;;5024408;28;86970;-43
2022/02/07 08:53:40;;;;;;;;;;;4.30;78.70;;;;;;5023712;28;88803;-44
2022/02/07 08:56:06;;;;;;;;;;;4.30;78.80;;;;;;5024207;28;89888;-44
2022/02/07 08:58:34;;;;;;;;;;;4.30;78.80;;;;;;5024175;28;86847;-44
2022/02/07 09:01:10;;;;;;;;;;;4.30;78.80;;;;;;5024132;28;88783;-44
2022/02/07 09:06:32;;;;;;;;;;;4.30;78.80;;;;;;5024274;28;87503;-45
2022/02/07 09:09:09;;;;;;;;;;;4.30;78.80;;;;;;5023747;28;89274;-43
2022/02/07 09:11:35;;;;;;;;;;;4.30;78.80;;;;;;5024252;28;86304;-43
2022/02/07 09:14:08;;;;;;;;;;;4.30;78.80;;;;;;5024275;28;88216;-43
2022/02/07 09:16:35;;;;;;;;;;;4.30;78.80;;;;;;5023642;28;89329;-44
2022/02/07 09:19:01;;;;;;;;;;;4.30;78.80;;;;;;5023518;28;88089;-43
2022/02/07 09:21:28;;;;;;;;;;;4.30;78.80;;;;;;5024223;28;87319;-44
2022/02/07 09:23:54;;;;;;;;;;;4.30;78.80;;;;;;5023554;28;89397;-43
2022/02/07 09:26:20;;;;;;;;;;;4.30;78.80;;;;;;5026807;27;87046;-43
2022/02/07 09:28:45;;;;;;;;;;;4.30;78.80;;;;;;5023420;28;89508;-43
2022/02/07 09:31:13;;;;;;;;;;;4.30;78.70;;;;;;5023857;28;87134;-47
2022/02/07 09:33:41;;;;;;;;;;;4.30;78.70;;;;;;5023692;28;88881;-44
2022/02/07 09:36:06;;;;;;;;;;;4.30;78.70;;;;;;5023892;28;88233;-43
2022/02/07 09:38:32;;;;;;;;;;;4.30;78.70;;;;;;5023728;28;87136;-48
2022/02/07 09:40:58;;;;;;;;;;;4.30;78.70;;;;;;5023709;28;88606;-45
2022/02/07 09:43:26;;;;;;;;;;;4.30;78.60;;;;;;5022328;28;90647;-44
2022/02/07 09:45:52;;;;;;;;;;;4.30;78.60;;;;;;5023665;28;87023;-45
2022/02/07 09:48:19;;;;;;;;;;;4.30;78.50;;;;;;5026114;28;88616;-45
2022/02/07 09:50:45;;;;;;;;;;;4.30;78.50;;;;;;5023755;28;87562;-44
2022/02/07 09:53:12;;;;;;;;;;;4.40;78.60;;;;;;5023618;28;88781;-45
2022/02/07 09:55:37;;;;;;;;;;;4.40;78.50;;;;;;5023127;28;89427;-45
2022/02/07 09:58:03;;;;;;;;;;;4.40;78.50;;;;;;5023567;28;87114;-43
2022/02/07 10:00:33;;;;;;;;;;;4.40;78.50;;;;;;5022505;28;90194;-44
2022/02/07 10:03:20;;;;;;;;;;;4.40;78.50;;;;;;5022991;28;89570;-46
2022/02/07 10:08:19;;;;;;;;;;;4.40;78.20;;;;;;5024734;28;87987;-44
2022/02/07 10:10:58;;;;;;;;;;;4.40;78.50;;;;;;5023353;28;87022;-44
2022/02/07 10:36:10;;;;;;;;;;;4.40;78.70;;;;;;5022648;28;87815;-45
2022/02/07 10:38:44;;;;;;;;;;;4.40;78.70;;;;;;5022018;28;88987;-42
2022/02/07 10:41:26;;;;;;;;;;;4.40;78.80;;;;;;5022903;28;86876;-44
2022/02/07 10:44:03;;;;;;;;;;;4.40;78.70;;;;;;5022511;28;89123;-43
2022/02/07 10:46:33;;;;;;;;;;;4.40;78.80;;;;;;5022712;28;89507;-42
2022/02/07 10:49:05;;;;;;;;;;;4.40;78.80;;;;;;5022773;28;87106;-44
2022/02/07 10:51:32;;;;;;;;;;;4.40;78.80;;;;;;5022881;28;88888;-42
2022/02/07 10:53:57;;;;;;;;;;;4.50;78.90;;;;;;5022803;28;89188;-45
2022/02/07 10:56:30;;;;;;;;;;;4.50;78.90;;;;;;5025899;28;87043;-44
2022/02/07 10:58:56;;;;;;;;;;;4.50;78.90;;;;;;5022580;28;89500;-44
2022/02/07 11:01:39;;;;;;;;;;;4.40;78.80;;;;;;5022124;28;88089;-46
2022/02/07 11:04:11;;;;;;;;;;;4.50;78.90;;;;;;5022531;28;89709;-43
2022/02/07 11:06:38;;;;;;;;;;;4.50;79.00;;;;;;5022438;28;89886;-45
2022/02/07 11:09:15;;;;;;;;;;;4.50;78.80;;;;;;5022695;28;86891;-45
2022/02/07 11:19:56;;;;;;;;;;;4.50;78.80;;;;;;5025477;28;87249;-42
2022/02/07 11:25:01;;;;;;;;;;;4.50;78.90;;;;;;5025181;28;86908;-44
2022/02/07 11:27:36;;;;;;;;;;;4.50;78.90;;;;;;5024466;28;90431;-47
2022/02/07 11:30:12;;;;;;;;;;;4.50;78.90;;;;;;5025845;28;86935;-44
2022/02/07 11:32:41;;;;;;;;;;;4.50;79.00;;;;;;5025586;28;88929;-42
2022/02/07 11:35:07;;;;;;;;;;;4.50;79.00;;;;;;5025318;28;89338;-46
2022/02/07 11:37:32;;;;;;;;;;;4.50;78.90;;;;;;5025527;28;87177;-43
2022/02/07 11:39:58;;;;;;;;;;;4.50;78.90;;;;;;5025485;28;88663;-43
2022/02/07 11:42:24;;;;;;;;;;;4.50;78.90;;;;;;5027598;28;89272;-43
2022/02/07 11:44:53;;;;;;;;;;;4.50;79.00;;;;;;5026153;28;88797;-42
2022/02/07 11:47:22;;;;;;;;;;;4.50;79.00;;;;;;5024889;28;89410;-44
2022/02/07 11:49:49;;;;;;;;;;;4.60;79.20;;;;;;5025484;28;87137;-43
2022/02/07 11:52:31;;;;;;;;;;;4.50;79.20;;;;;;5024688;28;88834;-43
2022/02/07 11:54:57;;;;;;;;;;;4.50;79.20;;;;;;5024899;28;89399;-45
2022/02/07 11:57:30;;;;;;;;;;;4.50;79.30;;;;;;5025065;28;87114;-43
2022/02/07 11:59:59;;;;;;;;;;;4.50;79.30;;;;;;5025326;28;88769;-45
2022/02/07 12:02:34;;;;;;;;;;;4.50;79.30;;;;;;5024860;28;89581;-45
2022/02/07 12:05:00;;;;;;;;;;;4.60;79.40;;;;;;5027744;28;87023;-42
2022/02/07 12:07:26;;;;;;;;;;;4.60;79.40;;;;;;5024684;28;89610;-43
2022/02/07 12:12:29;;;;;;;;;;;4.60;79.50;;;;;;5023690;28;86863;-47
2022/02/07 12:14:58;;;;;;;;;;;4.60;79.60;;;;;;5024763;28;89482;-44
2022/02/07 12:17:40;;;;;;;;;;;4.60;79.60;;;;;;5024394;28;88041;-42
2022/02/07 12:20:07;;;;;;;;;;;4.60;79.50;;;;;;5025256;28;88651;-43
2022/02/07 12:22:54;;;;;;;;;;;4.60;79.70;;;;;;5024460;28;89551;-47
2022/02/07 12:25:33;;;;;;;;;;;4.60;79.70;;;;;;5027950;28;87104;-48
2022/02/07 12:28:00;;;;;;;;;;;4.60;79.60;;;;;;5024282;28;89858;-45
2022/02/07 12:30:30;;;;;;;;;;;4.60;79.50;;;;;;5024693;28;87069;-43
2022/02/07 12:32:56;;;;;;;;;;;4.60;79.50;;;;;;5024445;28;88878;-46
2022/02/07 12:35:23;;;;;;;;;;;4.60;79.80;;;;;;5025015;28;88746;-45
2022/02/07 12:37:49;;;;;;;;;;;4.60;79.80;;;;;;5024552;28;87095;-43
2022/02/07 12:40:14;;;;;;;;;;;4.60;79.80;;;;;;5024741;28;88979;-43
2022/02/07 12:42:41;;;;;;;;;;;4.60;79.80;;;;;;5022910;28;89689;-45
2022/02/07 12:45:06;;;;;;;;;;;4.60;79.70;;;;;;5024707;28;86826;-42
2022/02/07 12:47:34;;;;;;;;;;;4.60;79.70;;;;;;5026875;28;89165;-44
2022/02/07 12:50:07;;;;;;;;;;;4.60;79.60;;;;;;5024572;28;87059;-45
2022/02/07 12:52:34;;;;;;;;;;;4.60;79.60;;;;;;5024451;28;88970;-43
2022/02/07 12:54:59;;;;;;;;;;;4.60;79.60;;;;;;5024018;28;89446;-43
2022/02/07 12:57:27;;;;;;;;;;;4.60;79.80;;;;;;5024206;28;86997;-43
2022/02/07 12:59:53;;;;;;;;;;;4.60;79.70;;;;;;5024687;28;87833;-43
2022/02/07 13:02:25;;;;;;;;;;;4.70;79.90;;;;;;5024079;28;89982;-44
2022/02/07 13:04:51;;;;;;;;;;;4.70;79.90;;;;;;5024562;28;86854;-43
2022/02/07 13:07:20;;;;;;;;;;;4.60;79.90;;;;;;5023596;28;88979;-45
2022/02/07 13:09:52;;;;;;;;;;;4.60;79.90;;;;;;5026416;28;89636;-44
2022/02/07 13:12:31;;;;;;;;;;;4.70;80.00;;;;;;5024317;28;88786;-43
2022/02/07 13:14:57;;;;;;;;;;;4.60;79.90;;;;;;5023786;28;90050;-44
2022/02/07 13:17:25;;;;;;;;;;;4.70;79.90;;;;;;5023961;28;87106;-44
2022/02/07 13:19:52;;;;;;;;;;;4.70;79.80;;;;;;5024094;28;88787;-43
2022/02/07 13:22:18;;;;;;;;;;;4.70;79.90;;;;;;5023398;28;89006;-43
2022/02/07 13:24:45;;;;;;;;;;;4.70;79.80;;;;;;5024707;28;86364;-43
2022/02/07 13:27:12;;;;;;;;;;;4.70;79.80;;;;;;5024005;28;88097;-45
2022/02/07 13:29:42;;;;;;;;;;;4.70;79.80;;;;;;5023515;28;89274;-43
2022/02/07 13:32:08;;;;;;;;;;;4.70;79.80;;;;;;5026208;28;87804;-44
2022/02/07 13:34:35;;;;;;;;;;;4.70;79.80;;;;;;5023405;28;89067;-44
2022/02/07 13:37:08;;;;;;;;;;;4.70;79.80;;;;;;5023697;28;87121;-42
2022/02/07 13:40:00;;;;;;;;;;;4.70;79.80;;;;;;5023680;28;89143;-43
2022/02/07 13:42:26;;;;;;;;;;;4.70;79.80;;;;;;5020448;27;89915;-45
2022/02/07 13:44:56;;;;;;;;;;;4.70;79.80;;;;;;5022904;28;86906;-42
2022/02/07 13:47:22;;;;;;;;;;;4.80;79.90;;;;;;5023459;28;87687;-43
2022/02/07 13:49:52;;;;;;;;;;;4.70;79.80;;;;;;5023765;28;88767;-44
2022/02/07 13:52:18;;;;;;;;;;;4.70;79.90;;;;;;5023386;28;87149;-43
2022/02/07 13:54:43;;;;;;;;;;;4.70;79.90;;;;;;5026015;28;89152;-45
2022/02/07 13:57:11;;;;;;;;;;;4.70;79.80;;;;;;5022749;28;87831;-44
2022/02/07 13:59:37;;;;;;;;;;;4.80;79.90;;;;;;5023368;28;90235;-42
2022/02/07 14:02:03;;;;;;;;;;;4.80;79.90;;;;;;5023032;28;89677;-42
2022/02/07 14:04:30;;;;;;;;;;;4.80;79.90;;;;;;5023694;28;87111;-44
2022/02/07 14:07:16;;;;;;;;;;;4.80;79.90;;;;;;5023285;28;88799;-43
2022/02/07 14:09:41;;;;;;;;;;;4.80;79.90;;;;;;5022979;28;90331;-43
2022/02/07 14:12:07;;;;;;;;;;;4.80;80.00;;;;;;5023118;28;87085;-45
2022/02/07 14:14:33;;;;;;;;;;;4.80;80.00;;;;;;5026148;28;89103;-45
2022/02/07 14:16:58;;;;;;;;;;;4.80;80.00;;;;;;5023135;28;87109;-45
2022/02/07 14:19:34;;;;;;;;;;;4.80;80.00;;;;;;5023170;28;88966;-43
2022/02/07 14:22:00;;;;;;;;;;;4.80;80.00;;;;;;5022061;28;90433;-45
2022/02/07 14:24:27;;;;;;;;;;;4.80;80.00;;;;;;5022977;28;87065;-44
2022/02/07 14:26:53;;;;;;;;;;;4.80;80.00;;;;;;5023186;28;89070;-43
2022/02/07 14:29:19;;;;;;;;;;;4.80;80.00;;;;;;5022327;28;89544;-44
2022/02/07 14:31:44;;;;;;;;;;;4.80;80.00;;;;;;5023301;28;87205;-45
2022/02/07 14:34:10;;;;;;;;;;;4.80;80.00;;;;;;5022969;28;89328;-44
2022/02/07 14:36:36;;;;;;;;;;;4.80;79.90;;;;;;5025611;28;89257;-43
2022/02/07 14:39:02;;;;;;;;;;;4.80;80.00;;;;;;5023542;28;88759;-44
2022/02/07 14:41:28;;;;;;;;;;;4.80;80.00;;;;;;5022686;28;89447;-44
2022/02/07 14:44:00;;;;;;;;;;;4.80;79.90;;;;;;5022259;28;87157;-45
2022/02/07 14:46:32;;;;;;;;;;;4.80;79.90;;;;;;5022361;28;88811;-43
2022/02/07 14:48:58;;;;;;;;;;;4.80;80.00;;;;;;5022351;28;89411;-43
2022/02/07 14:51:24;;;;;;;;;;;4.80;79.90;;;;;;5022958;28;87147;-43
2022/02/07 14:53:49;;;;;;;;;;;4.80;79.90;;;;;;5022820;28;87926;-43
2022/02/07 14:56:15;;;;;;;;;;;4.80;79.90;;;;;;5025248;28;89575;-43
2022/02/07 14:58:41;;;;;;;;;;;4.80;79.90;;;;;;5029043;28;87126;-43
2022/02/07 15:01:06;;;;;;;;;;;4.80;80.50;;;;;;5026061;28;89679;-43
2022/02/07 15:03:32;;;;;;;;;;;4.90;79.90;;;;;;5026662;28;86249;-43
2022/02/07 15:05:59;;;;;;;;;;;4.90;80.00;;;;;;5026344;28;86825;-45
2022/02/07 15:08:26;;;;;;;;;;;4.90;80.00;;;;;;5025734;28;88724;-45
2022/02/07 15:10:52;;;;;;;;;;;4.90;80.00;;;;;;5025421;28;88022;-47
2022/02/07 15:13:18;;;;;;;;;;;4.90;80.00;;;;;;5025741;28;89795;-45
2022/02/07 15:15:43;;;;;;;;;;;4.90;80.20;;;;;;5025642;28;89554;-45
2022/02/07 15:18:09;;;;;;;;;;;4.90;80.30;;;;;;5025830;28;87120;-45
2022/02/07 15:20:35;;;;;;;;;;;4.90;80.40;;;;;;5028540;28;89168;-45
2022/02/07 15:23:01;;;;;;;;;;;4.90;80.40;;;;;;5025772;28;87082;-44
2022/02/07 15:25:30;;;;;;;;;;;4.90;80.40;;;;;;5025880;28;88203;-45
2022/02/07 15:27:56;;;;;;;;;;;4.90;80.40;;;;;;5025519;28;88863;-44
2022/02/07 15:30:24;;;;;;;;;;;4.90;80.30;;;;;;5025686;28;87145;-45
2022/02/07 15:32:52;;;;;;;;;;;4.90;80.30;;;;;;5025624;28;88990;-45
2022/02/07 15:35:19;;;;;;;;;;;4.90;80.10;;;;;;5024552;28;90343;-43
2022/02/07 15:37:45;;;;;;;;;;;4.90;80.00;;;;;;5025519;28;87191;-45
2022/02/07 15:40:10;;;;;;;;;;;4.90;80.00;;;;;;5025366;28;89167;-45
2022/02/07 15:42:36;;;;;;;;;;;4.90;79.90;;;;;;5027600;28;89695;-45
2022/02/07 15:45:02;;;;;;;;;;;4.90;79.80;;;;;;5025853;28;88960;-45
2022/02/07 15:47:35;;;;;;;;;;;4.90;79.80;;;;;;5025033;28;89424;-45
2022/02/07 15:50:05;;;;;;;;;;;4.90;79.70;;;;;;5025690;28;86930;-45
2022/02/07 15:52:30;;;;;;;;;;;4.90;79.70;;;;;;5025908;28;90339;-45
2022/02/07 15:54:56;;;;;;;;;;;4.90;79.70;;;;;;5024939;28;89894;-45
2022/02/07 15:57:22;;;;;;;;;;;4.90;79.70;;;;;;5025250;28;86840;-45
2022/02/07 15:59:48;;;;;;;;;;;4.90;79.60;;;;;;5024604;28;88902;-43
2022/02/07 16:02:13;;;;;;;;;;;4.90;79.60;;;;;;5024870;28;89232;-45
2022/02/07 16:04:41;;;;;;;;;;;4.90;79.60;;;;;;5028081;28;87528;-43
2022/02/07 16:07:10;;;;;;;;;;;4.90;79.60;;;;;;5023923;28;89276;-45
2022/02/07 16:09:38;;;;;;;;;;;4.90;79.60;;;;;;5024773;28;87116;-45
2022/02/07 16:12:09;;;;;;;;;;;4.90;79.60;;;;;;5025061;28;89094;-44
2022/02/07 16:14:36;;;;;;;;;;;4.90;81.90;;;;;;5024846;28;89247;-44
2022/02/07 16:17:01;;;;;;;;;;;4.90;81.90;;;;;;5025385;28;86289;-43
2022/02/07 16:19:30;;;;;;;;;;;4.90;82.40;;;;;;5025058;28;88074;-43
2022/02/07 16:21:56;;;;;;;;;;;4.90;83.00;;;;;;5024430;28;89348;-45
2022/02/07 16:24:22;;;;;;;;;;;4.90;82.80;;;;;;5027053;28;88020;-45
2022/02/07 16:26:48;;;;;;;;;;;4.80;83.20;;;;;;5024609;28;88441;-45
2022/02/07 16:29:14;;;;;;;;;;;4.90;82.60;;;;;;5024860;28;87130;-48
2022/02/07 16:31:40;;;;;;;;;;;4.90;82.60;;;;;;5024955;28;88925;-43
2022/02/07 16:34:06;;;;;;;;;;;4.90;82.70;;;;;;5024348;28;89710;-43
2022/02/07 16:36:31;;;;;;;;;;;4.90;82.30;;;;;;5024669;28;87106;-46
2022/02/07 16:38:57;;;;;;;;;;;4.90;82.40;;;;;;5024649;28;88234;-47
2022/02/07 16:41:25;;;;;;;;;;;4.90;82.50;;;;;;5024950;28;89197;-44
2022/02/07 16:43:51;;;;;;;;;;;4.90;81.60;;;;;;5023900;28;87131;-44
2022/02/07 16:46:36;;;;;;;;;;;4.90;81.80;;;;;;5026002;28;90702;-43
2022/02/07 16:49:03;;;;;;;;;;;4.90;81.50;;;;;;5024052;28;88072;-45
2022/02/07 16:51:33;;;;;;;;;;;4.90;81.10;;;;;;5024340;28;90072;-43
2022/02/07 16:53:59;;;;;;;;;;;4.90;80.90;;;;;;5024324;28;89950;-47
2022/02/07 16:56:25;;;;;;;;;;;4.90;80.70;;;;;;5024422;28;87109;-45
2022/02/07 16:58:50;;;;;;;;;;;4.90;80.70;;;;;;5024337;28;88887;-45
2022/02/07 17:01:16;;;;;;;;;;;4.90;80.50;;;;;;5023920;28;88685;-44
2022/02/07 17:03:41;;;;;;;;;;;4.90;80.30;;;;;;5024140;28;87107;-44